sensor_id;sensor_type;location;lat;lon;timestamp;P1;durP1;ratioP1;P2;durP2;ratioP2
7398;SDS011;3740;50.700;7.184;2022-08-21T00:01:16;6.57;;;5.65;;
7398;SDS011;3740;50.700;7.184;2022-08-21T00:04:06;7.15;;;5.82;;
7398;SDS011;3740;50.700;7.184;2022-08-21T00:06:54;6.20;;;5.28;;
7398;SDS011;3740;50.700;7.184;2022-08-21T00:09:40;6.95;;;5.50;;
7398;SDS011;3740;50.700;7.184;2022-08-21T00:12:26;5.82;;;5.28;;
7398;SDS011;3740;50.700;7.184;2022-08-21T00:15:16;5.47;;;4.70;;
7398;SDS011;3740;50.700;7.184;2022-08-21T00:18:08;7.00;;;5.22;;
7398;SDS011;3740;50.700;7.184;2022-08-21T00:20:55;5.93;;;5.40;;
7398;SDS011;3740;50.700;7.184;2022-08-21T00:23:41;7.53;;;5.10;;
7398;SDS011;3740;50.700;7.184;2022-08-21T00:26:27;5.97;;;4.90;;
7398;SDS011;3740;50.700;7.184;2022-08-21T00:29:14;6.20;;;5.00;;
7398;SDS011;3740;50.700;7.184;2022-08-21T00:32:00;6.07;;;5.23;;
7398;SDS011;3740;50.700;7.184;2022-08-21T00:34:46;5.90;;;4.73;;
7398;SDS011;3740;50.700;7.184;2022-08-21T00:37:32;6.72;;;5.20;;
7398;SDS011;3740;50.700;7.184;2022-08-21T00:40:19;6.20;;;4.93;;
7398;SDS011;3740;50.700;7.184;2022-08-21T00:43:11;6.60;;;5.40;;
7398;SDS011;3740;50.700;7.184;2022-08-21T00:46:00;6.23;;;5.20;;
7398;SDS011;3740;50.700;7.184;2022-08-21T00:48:47;5.90;;;5.23;;
7398;SDS011;3740;50.700;7.184;2022-08-21T00:51:38;6.43;;;5.33;;
7398;SDS011;3740;50.700;7.184;2022-08-21T00:54:29;5.73;;;5.13;;
7398;SDS011;3740;50.700;7.184;2022-08-21T00:57:17;5.90;;;5.30;;
7398;SDS011;3740;50.700;7.184;2022-08-21T01:00:08;5.97;;;5.13;;
7398;SDS011;3740;50.700;7.184;2022-08-21T01:02:58;5.80;;;4.77;;
7398;SDS011;3740;50.700;7.184;2022-08-21T01:05:46;5.63;;;5.03;;
7398;SDS011;3740;50.700;7.184;2022-08-21T01:08:32;5.97;;;5.30;;
7398;SDS011;3740;50.700;7.184;2022-08-21T01:11:18;5.30;;;4.80;;
7398;SDS011;3740;50.700;7.184;2022-08-21T01:14:05;5.63;;;5.00;;
7398;SDS011;3740;50.700;7.184;2022-08-21T01:16:51;7.27;;;5.00;;
7398;SDS011;3740;50.700;7.184;2022-08-21T01:19:38;5.90;;;4.67;;
7398;SDS011;3740;50.700;7.184;2022-08-21T01:22:25;6.40;;;4.93;;
7398;SDS011;3740;50.700;7.184;2022-08-21T01:25:12;6.07;;;5.17;;
7398;SDS011;3740;50.700;7.184;2022-08-21T01:28:02;7.03;;;5.13;;
7398;SDS011;3740;50.700;7.184;2022-08-21T01:30:54;5.87;;;5.07;;
7398;SDS011;3740;50.700;7.184;2022-08-21T01:33:41;6.70;;;5.27;;
7398;SDS011;3740;50.700;7.184;2022-08-21T01:36:27;6.40;;;5.17;;
7398;SDS011;3740;50.700;7.184;2022-08-21T01:39:13;5.50;;;4.57;;
7398;SDS011;3740;50.700;7.184;2022-08-21T01:42:00;6.17;;;5.33;;
7398;SDS011;3740;50.700;7.184;2022-08-21T01:44:46;7.07;;;5.43;;
7398;SDS011;3740;50.700;7.184;2022-08-21T01:47:32;5.60;;;4.97;;
7398;SDS011;3740;50.700;7.184;2022-08-21T01:50:19;7.73;;;5.60;;
7398;SDS011;3740;50.700;7.184;2022-08-21T01:53:05;5.17;;;4.67;;
7398;SDS011;3740;50.700;7.184;2022-08-21T01:55:51;5.87;;;4.67;;
7398;SDS011;3740;50.700;7.184;2022-08-21T01:58:37;5.30;;;4.80;;
7398;SDS011;3740;50.700;7.184;2022-08-21T02:01:27;6.00;;;4.87;;
7398;SDS011;3740;50.700;7.184;2022-08-21T02:04:13;7.03;;;5.20;;
7398;SDS011;3740;50.700;7.184;2022-08-21T02:06:59;7.10;;;4.77;;
7398;SDS011;3740;50.700;7.184;2022-08-21T02:09:46;6.03;;;5.40;;
7398;SDS011;3740;50.700;7.184;2022-08-21T02:12:32;6.63;;;5.20;;
7398;SDS011;3740;50.700;7.184;2022-08-21T02:15:18;5.33;;;4.63;;
7398;SDS011;3740;50.700;7.184;2022-08-21T02:18:05;6.80;;;5.23;;
7398;SDS011;3740;50.700;7.184;2022-08-21T02:20:52;7.07;;;5.13;;
7398;SDS011;3740;50.700;7.184;2022-08-21T02:23:38;5.47;;;4.87;;
7398;SDS011;3740;50.700;7.184;2022-08-21T02:26:24;6.23;;;5.60;;
7398;SDS011;3740;50.700;7.184;2022-08-21T02:29:10;5.93;;;5.33;;
7398;SDS011;3740;50.700;7.184;2022-08-21T02:31:56;5.87;;;4.97;;
7398;SDS011;3740;50.700;7.184;2022-08-21T02:34:42;6.17;;;5.20;;
7398;SDS011;3740;50.700;7.184;2022-08-21T02:37:28;6.70;;;5.10;;
7398;SDS011;3740;50.700;7.184;2022-08-21T02:40:14;6.57;;;5.17;;
7398;SDS011;3740;50.700;7.184;2022-08-21T02:43:01;8.20;;;5.20;;
7398;SDS011;3740;50.700;7.184;2022-08-21T02:45:49;6.50;;;5.27;;
7398;SDS011;3740;50.700;7.184;2022-08-21T02:48:36;6.30;;;5.40;;
7398;SDS011;3740;50.700;7.184;2022-08-21T02:51:22;6.43;;;4.80;;
7398;SDS011;3740;50.700;7.184;2022-08-21T02:54:08;5.80;;;5.23;;
7398;SDS011;3740;50.700;7.184;2022-08-21T02:56:54;6.13;;;5.20;;
7398;SDS011;3740;50.700;7.184;2022-08-21T02:59:40;7.03;;;5.67;;
7398;SDS011;3740;50.700;7.184;2022-08-21T03:02:26;6.17;;;5.43;;
7398;SDS011;3740;50.700;7.184;2022-08-21T03:05:12;5.63;;;5.03;;
7398;SDS011;3740;50.700;7.184;2022-08-21T03:08:01;5.83;;;5.17;;
7398;SDS011;3740;50.700;7.184;2022-08-21T03:10:50;5.83;;;4.93;;
7398;SDS011;3740;50.700;7.184;2022-08-21T03:13:37;5.70;;;5.10;;
7398;SDS011;3740;50.700;7.184;2022-08-21T03:16:24;6.43;;;5.23;;
7398;SDS011;3740;50.700;7.184;2022-08-21T03:19:10;7.10;;;5.30;;
7398;SDS011;3740;50.700;7.184;2022-08-21T03:21:55;5.97;;;5.37;;
7398;SDS011;3740;50.700;7.184;2022-08-21T03:24:41;6.63;;;5.70;;
7398;SDS011;3740;50.700;7.184;2022-08-21T03:27:28;5.73;;;5.10;;
7398;SDS011;3740;50.700;7.184;2022-08-21T03:30:17;5.83;;;5.23;;
7398;SDS011;3740;50.700;7.184;2022-08-21T03:33:05;6.00;;;5.40;;
7398;SDS011;3740;50.700;7.184;2022-08-21T03:35:56;5.97;;;5.23;;
7398;SDS011;3740;50.700;7.184;2022-08-21T03:38:48;7.00;;;5.13;;
7398;SDS011;3740;50.700;7.184;2022-08-21T03:41:34;5.97;;;5.37;;
7398;SDS011;3740;50.700;7.184;2022-08-21T03:44:19;6.30;;;5.00;;
7398;SDS011;3740;50.700;7.184;2022-08-21T03:47:05;6.80;;;5.43;;
7398;SDS011;3740;50.700;7.184;2022-08-21T03:49:52;6.37;;;5.37;;
7398;SDS011;3740;50.700;7.184;2022-08-21T03:52:37;6.63;;;5.37;;
7398;SDS011;3740;50.700;7.184;2022-08-21T03:55:23;6.10;;;5.10;;
7398;SDS011;3740;50.700;7.184;2022-08-21T03:58:10;5.93;;;5.33;;
7398;SDS011;3740;50.700;7.184;2022-08-21T04:00:57;6.57;;;5.40;;
7398;SDS011;3740;50.700;7.184;2022-08-21T04:03:45;5.60;;;5.03;;
7398;SDS011;3740;50.700;7.184;2022-08-21T04:06:31;6.07;;;5.17;;
7398;SDS011;3740;50.700;7.184;2022-08-21T04:09:17;5.87;;;5.03;;
7398;SDS011;3740;50.700;7.184;2022-08-21T04:12:04;5.77;;;5.17;;
7398;SDS011;3740;50.700;7.184;2022-08-21T04:14:50;6.50;;;5.40;;
7398;SDS011;3740;50.700;7.184;2022-08-21T04:17:36;5.57;;;4.97;;
7398;SDS011;3740;50.700;7.184;2022-08-21T04:20:22;6.77;;;5.27;;
7398;SDS011;3740;50.700;7.184;2022-08-21T04:23:10;7.40;;;5.90;;
7398;SDS011;3740;50.700;7.184;2022-08-21T04:25:56;6.13;;;5.17;;
7398;SDS011;3740;50.700;7.184;2022-08-21T04:28:42;6.23;;;5.20;;
7398;SDS011;3740;50.700;7.184;2022-08-21T04:31:28;6.10;;;5.50;;
7398;SDS011;3740;50.700;7.184;2022-08-21T04:34:15;6.93;;;5.50;;
7398;SDS011;3740;50.700;7.184;2022-08-21T04:37:00;6.10;;;5.03;;
7398;SDS011;3740;50.700;7.184;2022-08-21T04:39:46;6.10;;;5.50;;
7398;SDS011;3740;50.700;7.184;2022-08-21T04:42:32;6.03;;;5.43;;
7398;SDS011;3740;50.700;7.184;2022-08-21T04:45:20;6.23;;;5.27;;
7398;SDS011;3740;50.700;7.184;2022-08-21T04:48:08;6.03;;;5.43;;
7398;SDS011;3740;50.700;7.184;2022-08-21T04:53:47;7.37;;;5.23;;
7398;SDS011;3740;50.700;7.184;2022-08-21T04:56:42;6.13;;;5.10;;
7398;SDS011;3740;50.700;7.184;2022-08-21T04:59:36;5.70;;;5.10;;
7398;SDS011;3740;50.700;7.184;2022-08-21T05:02:25;6.13;;;5.40;;
7398;SDS011;3740;50.700;7.184;2022-08-21T05:05:11;5.47;;;4.97;;
7398;SDS011;3740;50.700;7.184;2022-08-21T05:07:57;6.33;;;5.50;;
7398;SDS011;3740;50.700;7.184;2022-08-21T05:10:46;6.63;;;5.27;;
7398;SDS011;3740;50.700;7.184;2022-08-21T05:13:32;6.30;;;5.20;;
7398;SDS011;3740;50.700;7.184;2022-08-21T05:16:18;6.20;;;5.60;;
7398;SDS011;3740;50.700;7.184;2022-08-21T05:19:05;6.43;;;5.50;;
7398;SDS011;3740;50.700;7.184;2022-08-21T05:21:51;8.83;;;5.83;;
7398;SDS011;3740;50.700;7.184;2022-08-21T05:24:37;5.73;;;5.13;;
7398;SDS011;3740;50.700;7.184;2022-08-21T05:27:23;6.77;;;5.50;;
7398;SDS011;3740;50.700;7.184;2022-08-21T05:30:09;6.03;;;5.30;;
7398;SDS011;3740;50.700;7.184;2022-08-21T05:32:57;6.53;;;5.47;;
7398;SDS011;3740;50.700;7.184;2022-08-21T05:35:44;6.10;;;5.50;;
7398;SDS011;3740;50.700;7.184;2022-08-21T05:38:30;5.70;;;5.03;;
7398;SDS011;3740;50.700;7.184;2022-08-21T05:41:16;5.80;;;5.20;;
7398;SDS011;3740;50.700;7.184;2022-08-21T05:44:02;7.17;;;6.37;;
7398;SDS011;3740;50.700;7.184;2022-08-21T05:46:48;6.30;;;5.70;;
7398;SDS011;3740;50.700;7.184;2022-08-21T05:49:34;7.07;;;5.97;;
7398;SDS011;3740;50.700;7.184;2022-08-21T05:52:20;6.30;;;5.67;;
7398;SDS011;3740;50.700;7.184;2022-08-21T05:55:07;8.23;;;6.00;;
7398;SDS011;3740;50.700;7.184;2022-08-21T05:57:53;7.43;;;6.40;;
7398;SDS011;3740;50.700;7.184;2022-08-21T06:00:38;7.80;;;6.33;;
7398;SDS011;3740;50.700;7.184;2022-08-21T06:03:26;6.90;;;6.00;;
7398;SDS011;3740;50.700;7.184;2022-08-21T06:06:17;8.33;;;6.20;;
7398;SDS011;3740;50.700;7.184;2022-08-21T06:09:03;7.00;;;6.00;;
7398;SDS011;3740;50.700;7.184;2022-08-21T06:11:49;7.67;;;6.10;;
7398;SDS011;3740;50.700;7.184;2022-08-21T06:14:36;8.97;;;6.10;;
7398;SDS011;3740;50.700;7.184;2022-08-21T06:17:23;8.37;;;7.07;;
7398;SDS011;3740;50.700;7.184;2022-08-21T06:20:09;8.43;;;7.20;;
7398;SDS011;3740;50.700;7.184;2022-08-21T06:22:55;9.67;;;7.20;;
7398;SDS011;3740;50.700;7.184;2022-08-21T06:25:41;10.00;;;7.40;;
7398;SDS011;3740;50.700;7.184;2022-08-21T06:28:27;7.80;;;6.90;;
7398;SDS011;3740;50.700;7.184;2022-08-21T06:31:14;9.53;;;7.03;;
7398;SDS011;3740;50.700;7.184;2022-08-21T06:34:05;9.40;;;7.60;;
7398;SDS011;3740;50.700;7.184;2022-08-21T06:36:51;8.50;;;7.70;;
7398;SDS011;3740;50.700;7.184;2022-08-21T06:39:37;9.27;;;8.27;;
7398;SDS011;3740;50.700;7.184;2022-08-21T06:42:23;8.27;;;7.47;;
7398;SDS011;3740;50.700;7.184;2022-08-21T06:45:09;9.40;;;7.80;;
7398;SDS011;3740;50.700;7.184;2022-08-21T06:47:55;8.93;;;7.20;;
7398;SDS011;3740;50.700;7.184;2022-08-21T06:50:41;9.90;;;7.10;;
7398;SDS011;3740;50.700;7.184;2022-08-21T06:53:27;9.00;;;7.47;;
7398;SDS011;3740;50.700;7.184;2022-08-21T06:56:13;8.30;;;7.40;;
7398;SDS011;3740;50.700;7.184;2022-08-21T06:58:59;7.70;;;6.90;;
7398;SDS011;3740;50.700;7.184;2022-08-21T07:01:45;7.70;;;6.90;;
7398;SDS011;3740;50.700;7.184;2022-08-21T07:04:31;8.27;;;7.20;;
7398;SDS011;3740;50.700;7.184;2022-08-21T07:07:17;9.50;;;7.40;;
7398;SDS011;3740;50.700;7.184;2022-08-21T07:10:03;9.23;;;6.80;;
7398;SDS011;3740;50.700;7.184;2022-08-21T07:12:49;9.30;;;6.67;;
7398;SDS011;3740;50.700;7.184;2022-08-21T07:15:36;8.83;;;7.93;;
7398;SDS011;3740;50.700;7.184;2022-08-21T07:18:22;8.63;;;6.73;;
7398;SDS011;3740;50.700;7.184;2022-08-21T07:21:08;8.63;;;6.57;;
7398;SDS011;3740;50.700;7.184;2022-08-21T07:23:54;7.73;;;6.97;;
7398;SDS011;3740;50.700;7.184;2022-08-21T07:26:40;7.03;;;6.33;;
7398;SDS011;3740;50.700;7.184;2022-08-21T07:29:26;7.97;;;6.50;;
7398;SDS011;3740;50.700;7.184;2022-08-21T07:32:12;8.73;;;6.22;;
7398;SDS011;3740;50.700;7.184;2022-08-21T07:35:00;8.35;;;7.15;;
7398;SDS011;3740;50.700;7.184;2022-08-21T07:37:46;9.17;;;7.40;;
7398;SDS011;3740;50.700;7.184;2022-08-21T07:40:32;8.57;;;7.03;;
7398;SDS011;3740;50.700;7.184;2022-08-21T07:43:18;7.47;;;6.17;;
7398;SDS011;3740;50.700;7.184;2022-08-21T07:46:04;11.00;;;6.97;;
7398;SDS011;3740;50.700;7.184;2022-08-21T07:48:50;8.85;;;6.32;;
7398;SDS011;3740;50.700;7.184;2022-08-21T07:51:36;6.53;;;5.82;;
7398;SDS011;3740;50.700;7.184;2022-08-21T07:54:22;8.55;;;5.90;;
7398;SDS011;3740;50.700;7.184;2022-08-21T07:57:08;6.35;;;5.75;;
7398;SDS011;3740;50.700;7.184;2022-08-21T07:59:54;7.93;;;5.60;;
7398;SDS011;3740;50.700;7.184;2022-08-21T08:02:40;6.85;;;5.65;;
7398;SDS011;3740;50.700;7.184;2022-08-21T08:05:27;8.43;;;5.50;;
7398;SDS011;3740;50.700;7.184;2022-08-21T08:08:14;8.77;;;5.78;;
7398;SDS011;3740;50.700;7.184;2022-08-21T08:11:00;7.13;;;5.57;;
7398;SDS011;3740;50.700;7.184;2022-08-21T08:13:47;7.13;;;5.65;;
7398;SDS011;3740;50.700;7.184;2022-08-21T08:16:35;9.82;;;5.75;;
7398;SDS011;3740;50.700;7.184;2022-08-21T08:19:21;6.95;;;4.95;;
7398;SDS011;3740;50.700;7.184;2022-08-21T08:22:14;6.18;;;4.55;;
7398;SDS011;3740;50.700;7.184;2022-08-21T08:25:01;8.68;;;4.38;;
7398;SDS011;3740;50.700;7.184;2022-08-21T08:27:47;6.75;;;4.05;;
7398;SDS011;3740;50.700;7.184;2022-08-21T08:30:33;5.00;;;4.32;;
7398;SDS011;3740;50.700;7.184;2022-08-21T08:33:19;5.15;;;4.10;;
7398;SDS011;3740;50.700;7.184;2022-08-21T08:36:11;6.82;;;4.95;;
7398;SDS011;3740;50.700;7.184;2022-08-21T08:38:59;7.70;;;4.35;;
7398;SDS011;3740;50.700;7.184;2022-08-21T08:41:46;5.80;;;4.30;;
7398;SDS011;3740;50.700;7.184;2022-08-21T08:44:36;6.93;;;4.28;;
7398;SDS011;3740;50.700;7.184;2022-08-21T08:47:22;6.55;;;4.03;;
7398;SDS011;3740;50.700;7.184;2022-08-21T08:53:14;6.10;;;3.88;;
7398;SDS011;3740;50.700;7.184;2022-08-21T08:56:05;6.75;;;4.03;;
7398;SDS011;3740;50.700;7.184;2022-08-21T08:58:51;5.93;;;3.63;;
7398;SDS011;3740;50.700;7.184;2022-08-21T09:01:38;4.13;;;3.65;;
7398;SDS011;3740;50.700;7.184;2022-08-21T09:04:25;5.38;;;3.72;;
7398;SDS011;3740;50.700;7.184;2022-08-21T09:07:36;4.45;;;3.80;;
7398;SDS011;3740;50.700;7.184;2022-08-21T09:10:21;8.25;;;4.60;;
7398;SDS011;3740;50.700;7.184;2022-08-21T09:13:19;4.78;;;3.28;;
7398;SDS011;3740;50.700;7.184;2022-08-21T09:19:36;5.20;;;3.53;;
7398;SDS011;3740;50.700;7.184;2022-08-21T09:22:50;5.28;;;3.50;;
7398;SDS011;3740;50.700;7.184;2022-08-21T09:25:42;6.80;;;3.42;;
7398;SDS011;3740;50.700;7.184;2022-08-21T09:28:54;6.72;;;3.85;;
7398;SDS011;3740;50.700;7.184;2022-08-21T09:31:42;6.80;;;3.60;;
7398;SDS011;3740;50.700;7.184;2022-08-21T09:34:29;4.32;;;3.50;;
7398;SDS011;3740;50.700;7.184;2022-08-21T09:37:17;5.80;;;3.65;;
7398;SDS011;3740;50.700;7.184;2022-08-21T09:40:14;4.95;;;3.15;;
7398;SDS011;3740;50.700;7.184;2022-08-21T09:48:56;5.05;;;3.28;;
7398;SDS011;3740;50.700;7.184;2022-08-21T09:51:49;3.80;;;2.90;;
7398;SDS011;3740;50.700;7.184;2022-08-21T09:54:38;6.43;;;3.10;;
7398;SDS011;3740;50.700;7.184;2022-08-21T09:57:29;5.82;;;3.20;;
7398;SDS011;3740;50.700;7.184;2022-08-21T10:00:26;5.07;;;3.20;;
7398;SDS011;3740;50.700;7.184;2022-08-21T10:03:17;3.22;;;2.80;;
7398;SDS011;3740;50.700;7.184;2022-08-21T10:06:06;3.67;;;3.03;;
7398;SDS011;3740;50.700;7.184;2022-08-21T10:09:15;5.43;;;3.20;;
7398;SDS011;3740;50.700;7.184;2022-08-21T10:18:41;5.20;;;3.38;;
7398;SDS011;3740;50.700;7.184;2022-08-21T10:27:55;5.70;;;3.15;;
7398;SDS011;3740;50.700;7.184;2022-08-21T10:30:56;4.57;;;3.10;;
7398;SDS011;3740;50.700;7.184;2022-08-21T10:37:25;5.18;;;3.10;;
7398;SDS011;3740;50.700;7.184;2022-08-21T10:46:37;5.20;;;3.03;;
7398;SDS011;3740;50.700;7.184;2022-08-21T10:49:52;4.47;;;2.55;;
7398;SDS011;3740;50.700;7.184;2022-08-21T10:56:13;3.33;;;2.42;;
7398;SDS011;3740;50.700;7.184;2022-08-21T10:59:20;4.70;;;2.50;;
7398;SDS011;3740;50.700;7.184;2022-08-21T11:02:26;3.53;;;2.20;;
7398;SDS011;3740;50.700;7.184;2022-08-21T11:05:20;3.42;;;2.42;;
7398;SDS011;3740;50.700;7.184;2022-08-21T11:08:57;2.90;;;2.40;;
7398;SDS011;3740;50.700;7.184;2022-08-21T11:11:34;3.60;;;2.20;;
7398;SDS011;3740;50.700;7.184;2022-08-21T11:14:47;2.38;;;2.17;;
7398;SDS011;3740;50.700;7.184;2022-08-21T11:17:47;2.50;;;2.00;;
7398;SDS011;3740;50.700;7.184;2022-08-21T11:20:43;3.53;;;2.53;;
7398;SDS011;3740;50.700;7.184;2022-08-21T11:23:38;2.33;;;2.10;;
7398;SDS011;3740;50.700;7.184;2022-08-21T11:26:37;2.97;;;2.00;;
7398;SDS011;3740;50.700;7.184;2022-08-21T11:29:31;3.45;;;2.53;;
7398;SDS011;3740;50.700;7.184;2022-08-21T11:32:28;3.17;;;2.20;;
7398;SDS011;3740;50.700;7.184;2022-08-21T11:35:47;2.88;;;2.38;;
7398;SDS011;3740;50.700;7.184;2022-08-21T11:38:42;2.35;;;2.03;;
7398;SDS011;3740;50.700;7.184;2022-08-21T11:41:40;2.33;;;2.00;;
7398;SDS011;3740;50.700;7.184;2022-08-21T11:44:37;2.95;;;2.33;;
7398;SDS011;3740;50.700;7.184;2022-08-21T11:50:45;2.20;;;2.00;;
7398;SDS011;3740;50.700;7.184;2022-08-21T11:53:39;2.88;;;2.30;;
7398;SDS011;3740;50.700;7.184;2022-08-21T11:56:38;2.58;;;2.13;;
7398;SDS011;3740;50.700;7.184;2022-08-21T11:59:34;2.83;;;2.50;;
7398;SDS011;3740;50.700;7.184;2022-08-21T12:02:33;3.13;;;2.40;;
7398;SDS011;3740;50.700;7.184;2022-08-21T12:05:32;3.42;;;2.20;;
7398;SDS011;3740;50.700;7.184;2022-08-21T12:08:31;2.58;;;2.15;;
7398;SDS011;3740;50.700;7.184;2022-08-21T12:16:51;2.65;;;2.25;;
7398;SDS011;3740;50.700;7.184;2022-08-21T12:19:36;2.40;;;2.08;;
7398;SDS011;3740;50.700;7.184;2022-08-21T12:22:23;2.35;;;2.15;;
7398;SDS011;3740;50.700;7.184;2022-08-21T12:25:24;2.88;;;2.53;;
7398;SDS011;3740;50.700;7.184;2022-08-21T12:28:14;2.67;;;2.38;;
7398;SDS011;3740;50.700;7.184;2022-08-21T12:31:23;3.05;;;2.22;;
7398;SDS011;3740;50.700;7.184;2022-08-21T12:34:10;3.00;;;2.40;;
7398;SDS011;3740;50.700;7.184;2022-08-21T12:36:58;2.53;;;2.20;;
7398;SDS011;3740;50.700;7.184;2022-08-21T12:39:48;3.75;;;2.00;;
7398;SDS011;3740;50.700;7.184;2022-08-21T12:42:38;2.63;;;2.28;;
7398;SDS011;3740;50.700;7.184;2022-08-21T12:48:23;3.65;;;2.53;;
7398;SDS011;3740;50.700;7.184;2022-08-21T12:51:15;3.28;;;2.42;;
7398;SDS011;3740;50.700;7.184;2022-08-21T12:54:03;2.47;;;2.10;;
7398;SDS011;3740;50.700;7.184;2022-08-21T12:57:00;2.28;;;2.00;;
7398;SDS011;3740;50.700;7.184;2022-08-21T13:00:03;2.28;;;2.08;;
7398;SDS011;3740;50.700;7.184;2022-08-21T13:02:54;3.05;;;2.10;;
7398;SDS011;3740;50.700;7.184;2022-08-21T13:05:41;2.13;;;1.77;;
7398;SDS011;3740;50.700;7.184;2022-08-21T13:08:27;2.75;;;1.83;;
7398;SDS011;3740;50.700;7.184;2022-08-21T13:11:15;2.50;;;2.15;;
7398;SDS011;3740;50.700;7.184;2022-08-21T13:14:03;2.60;;;2.13;;
7398;SDS011;3740;50.700;7.184;2022-08-21T13:16:55;4.00;;;3.70;;
7398;SDS011;3740;50.700;7.184;2022-08-21T13:19:52;3.20;;;2.20;;
7398;SDS011;3740;50.700;7.184;2022-08-21T13:22:42;2.53;;;2.05;;
7398;SDS011;3740;50.700;7.184;2022-08-21T13:25:30;2.40;;;1.90;;
7398;SDS011;3740;50.700;7.184;2022-08-21T13:28:21;2.30;;;2.00;;
7398;SDS011;3740;50.700;7.184;2022-08-21T13:31:09;2.45;;;2.08;;
7398;SDS011;3740;50.700;7.184;2022-08-21T13:33:55;2.30;;;1.67;;
7398;SDS011;3740;50.700;7.184;2022-08-21T13:36:42;2.30;;;1.95;;
7398;SDS011;3740;50.700;7.184;2022-08-21T13:39:28;1.75;;;1.65;;
7398;SDS011;3740;50.700;7.184;2022-08-21T13:42:15;3.17;;;1.98;;
7398;SDS011;3740;50.700;7.184;2022-08-21T13:45:02;2.22;;;1.98;;
7398;SDS011;3740;50.700;7.184;2022-08-21T13:47:49;2.47;;;2.17;;
7398;SDS011;3740;50.700;7.184;2022-08-21T13:50:37;2.60;;;2.17;;
7398;SDS011;3740;50.700;7.184;2022-08-21T14:28:32;2.88;;;1.95;;
7398;SDS011;3740;50.700;7.184;2022-08-21T14:31:16;2.50;;;1.73;;
7398;SDS011;3740;50.700;7.184;2022-08-21T14:33:44;4.10;;;2.30;;
7398;SDS011;3740;50.700;7.184;2022-08-21T14:36:10;3.45;;;2.00;;
7398;SDS011;3740;50.700;7.184;2022-08-21T14:38:37;4.50;;;2.20;;
7398;SDS011;3740;50.700;7.184;2022-08-21T14:43:43;2.63;;;2.00;;
7398;SDS011;3740;50.700;7.184;2022-08-21T14:46:10;4.55;;;2.50;;
7398;SDS011;3740;50.700;7.184;2022-08-21T14:48:38;3.20;;;2.53;;
7398;SDS011;3740;50.700;7.184;2022-08-21T14:51:03;3.50;;;1.85;;
7398;SDS011;3740;50.700;7.184;2022-08-21T14:53:29;3.15;;;2.22;;
7398;SDS011;3740;50.700;7.184;2022-08-21T14:55:54;3.95;;;2.28;;
7398;SDS011;3740;50.700;7.184;2022-08-21T14:58:40;3.30;;;2.25;;
7398;SDS011;3740;50.700;7.184;2022-08-21T15:01:08;2.72;;;2.13;;
7398;SDS011;3740;50.700;7.184;2022-08-21T15:03:35;5.45;;;2.47;;
7398;SDS011;3740;50.700;7.184;2022-08-21T15:06:02;2.17;;;1.98;;
7398;SDS011;3740;50.700;7.184;2022-08-21T15:08:29;3.63;;;2.25;;
7398;SDS011;3740;50.700;7.184;2022-08-21T15:10:55;3.53;;;2.15;;
7398;SDS011;3740;50.700;7.184;2022-08-21T15:13:21;3.88;;;2.05;;
7398;SDS011;3740;50.700;7.184;2022-08-21T15:15:48;2.85;;;1.73;;
7398;SDS011;3740;50.700;7.184;2022-08-21T15:18:18;3.97;;;2.25;;
7398;SDS011;3740;50.700;7.184;2022-08-21T15:20:44;3.35;;;2.20;;
7398;SDS011;3740;50.700;7.184;2022-08-21T15:23:10;3.50;;;2.30;;
7398;SDS011;3740;50.700;7.184;2022-08-21T15:25:35;2.53;;;1.83;;
7398;SDS011;3740;50.700;7.184;2022-08-21T15:28:04;2.88;;;2.15;;
7398;SDS011;3740;50.700;7.184;2022-08-21T15:30:30;1.90;;;1.70;;
7398;SDS011;3740;50.700;7.184;2022-08-21T15:32:56;3.38;;;2.40;;
7398;SDS011;3740;50.700;7.184;2022-08-21T15:35:22;3.63;;;2.28;;
7398;SDS011;3740;50.700;7.184;2022-08-21T15:37:48;4.68;;;2.88;;
7398;SDS011;3740;50.700;7.184;2022-08-21T15:40:14;2.97;;;2.22;;
7398;SDS011;3740;50.700;7.184;2022-08-21T15:42:41;2.53;;;1.95;;
7398;SDS011;3740;50.700;7.184;2022-08-21T15:45:08;3.83;;;2.10;;
7398;SDS011;3740;50.700;7.184;2022-08-21T15:47:36;3.10;;;2.13;;
7398;SDS011;3740;50.700;7.184;2022-08-21T15:50:03;3.85;;;2.28;;
7398;SDS011;3740;50.700;7.184;2022-08-21T15:52:32;2.80;;;1.85;;
7398;SDS011;3740;50.700;7.184;2022-08-21T15:54:58;3.28;;;2.40;;
7398;SDS011;3740;50.700;7.184;2022-08-21T15:57:24;3.45;;;2.30;;
7398;SDS011;3740;50.700;7.184;2022-08-21T15:59:52;5.88;;;2.60;;
7398;SDS011;3740;50.700;7.184;2022-08-21T16:02:24;4.32;;;2.10;;
7398;SDS011;3740;50.700;7.184;2022-08-21T16:04:52;3.70;;;2.28;;
7398;SDS011;3740;50.700;7.184;2022-08-21T16:07:18;3.70;;;2.30;;
7398;SDS011;3740;50.700;7.184;2022-08-21T16:09:44;3.22;;;2.28;;
7398;SDS011;3740;50.700;7.184;2022-08-21T16:12:11;4.07;;;2.70;;
7398;SDS011;3740;50.700;7.184;2022-08-21T16:14:52;4.32;;;2.28;;
7398;SDS011;3740;50.700;7.184;2022-08-21T16:17:20;4.68;;;2.67;;
7398;SDS011;3740;50.700;7.184;2022-08-21T16:19:49;3.83;;;2.72;;
7398;SDS011;3740;50.700;7.184;2022-08-21T16:22:15;3.42;;;2.30;;
7398;SDS011;3740;50.700;7.184;2022-08-21T16:24:41;2.70;;;2.20;;
7398;SDS011;3740;50.700;7.184;2022-08-21T16:27:06;3.83;;;2.00;;
7398;SDS011;3740;50.700;7.184;2022-08-21T16:29:33;2.45;;;2.10;;
7398;SDS011;3740;50.700;7.184;2022-08-21T16:32:00;3.92;;;2.05;;
7398;SDS011;3740;50.700;7.184;2022-08-21T16:34:26;4.97;;;2.20;;
7398;SDS011;3740;50.700;7.184;2022-08-21T16:36:52;3.35;;;2.20;;
7398;SDS011;3740;50.700;7.184;2022-08-21T16:39:18;3.13;;;2.10;;
7398;SDS011;3740;50.700;7.184;2022-08-21T16:41:44;2.30;;;2.10;;
7398;SDS011;3740;50.700;7.184;2022-08-21T16:44:12;4.03;;;2.45;;
7398;SDS011;3740;50.700;7.184;2022-08-21T16:46:39;3.50;;;2.13;;
7398;SDS011;3740;50.700;7.184;2022-08-21T16:49:05;4.93;;;2.10;;
7398;SDS011;3740;50.700;7.184;2022-08-21T16:51:32;3.80;;;2.20;;
7398;SDS011;3740;50.700;7.184;2022-08-21T16:53:58;3.42;;;2.17;;
7398;SDS011;3740;50.700;7.184;2022-08-21T16:56:24;3.30;;;2.25;;
7398;SDS011;3740;50.700;7.184;2022-08-21T16:58:50;2.53;;;2.20;;
7398;SDS011;3740;50.700;7.184;2022-08-21T17:01:20;3.78;;;2.13;;
7398;SDS011;3740;50.700;7.184;2022-08-21T17:03:49;3.20;;;2.10;;
7398;SDS011;3740;50.700;7.184;2022-08-21T17:06:18;2.88;;;2.30;;
7398;SDS011;3740;50.700;7.184;2022-08-21T17:08:48;2.80;;;2.08;;
7398;SDS011;3740;50.700;7.184;2022-08-21T17:11:21;3.42;;;2.30;;
7398;SDS011;3740;50.700;7.184;2022-08-21T17:14:03;4.25;;;2.70;;
7398;SDS011;3740;50.700;7.184;2022-08-21T17:16:31;3.38;;;2.13;;
7398;SDS011;3740;50.700;7.184;2022-08-21T17:18:56;3.95;;;2.20;;
7398;SDS011;3740;50.700;7.184;2022-08-21T17:21:22;4.25;;;2.20;;
7398;SDS011;3740;50.700;7.184;2022-08-21T17:23:48;4.60;;;2.67;;
7398;SDS011;3740;50.700;7.184;2022-08-21T17:26:14;3.20;;;2.70;;
7398;SDS011;3740;50.700;7.184;2022-08-21T17:28:41;3.92;;;2.55;;
7398;SDS011;3740;50.700;7.184;2022-08-21T17:31:08;3.97;;;2.20;;
7398;SDS011;3740;50.700;7.184;2022-08-21T17:33:38;3.22;;;2.15;;
7398;SDS011;3740;50.700;7.184;2022-08-21T17:36:09;3.58;;;2.40;;
7398;SDS011;3740;50.700;7.184;2022-08-21T17:38:35;3.58;;;2.10;;
7398;SDS011;3740;50.700;7.184;2022-08-21T17:41:02;3.55;;;2.25;;
7398;SDS011;3740;50.700;7.184;2022-08-21T17:43:30;2.83;;;1.92;;
7398;SDS011;3740;50.700;7.184;2022-08-21T17:45:56;3.78;;;2.30;;
7398;SDS011;3740;50.700;7.184;2022-08-21T17:48:22;5.22;;;2.38;;
7398;SDS011;3740;50.700;7.184;2022-08-21T17:50:47;3.30;;;2.45;;
7398;SDS011;3740;50.700;7.184;2022-08-21T17:53:13;4.18;;;2.47;;
7398;SDS011;3740;50.700;7.184;2022-08-21T17:55:38;2.47;;;2.10;;
7398;SDS011;3740;50.700;7.184;2022-08-21T17:58:05;3.20;;;2.00;;
7398;SDS011;3740;50.700;7.184;2022-08-21T18:00:34;4.47;;;2.05;;
7398;SDS011;3740;50.700;7.184;2022-08-21T18:03:02;3.40;;;2.20;;
7398;SDS011;3740;50.700;7.184;2022-08-21T18:05:33;3.88;;;2.40;;
7398;SDS011;3740;50.700;7.184;2022-08-21T18:07:59;2.83;;;2.22;;
7398;SDS011;3740;50.700;7.184;2022-08-21T18:10:24;2.92;;;2.13;;
7398;SDS011;3740;50.700;7.184;2022-08-21T18:12:50;3.53;;;2.03;;
7398;SDS011;3740;50.700;7.184;2022-08-21T18:15:17;2.85;;;2.10;;
7398;SDS011;3740;50.700;7.184;2022-08-21T18:17:44;3.85;;;1.80;;
7398;SDS011;3740;50.700;7.184;2022-08-21T18:20:13;3.70;;;2.22;;
7398;SDS011;3740;50.700;7.184;2022-08-21T18:22:41;3.92;;;1.92;;
7398;SDS011;3740;50.700;7.184;2022-08-21T18:25:07;2.80;;;2.05;;
7398;SDS011;3740;50.700;7.184;2022-08-21T18:27:33;5.47;;;2.15;;